sensor_id;sensor_type;location;lat;lon;timestamp;P1;durP1;ratioP1;P2;durP2;ratioP2
16484;SDS011;8353;47.856;12.344;2024-01-30T00:01:59;5.57;;;3.93;;
16484;SDS011;8353;47.856;12.344;2024-01-30T00:04:29;4.73;;;3.80;;
16484;SDS011;8353;47.856;12.344;2024-01-30T00:07:03;5.13;;;3.83;;
16484;SDS011;8353;47.856;12.344;2024-01-30T00:09:33;4.13;;;3.67;;
16484;SDS011;8353;47.856;12.344;2024-01-30T00:12:04;4.40;;;3.60;;
16484;SDS011;8353;47.856;12.344;2024-01-30T00:14:36;5.57;;;4.00;;
16484;SDS011;8353;47.856;12.344;2024-01-30T00:17:06;4.53;;;3.63;;
16484;SDS011;8353;47.856;12.344;2024-01-30T00:19:36;4.47;;;4.03;;
16484;SDS011;8353;47.856;12.344;2024-01-30T00:22:06;4.20;;;3.50;;
16484;SDS011;8353;47.856;12.344;2024-01-30T00:24:37;4.73;;;3.83;;
16484;SDS011;8353;47.856;12.344;2024-01-30T00:27:07;5.67;;;4.47;;
16484;SDS011;8353;47.856;12.344;2024-01-30T00:29:40;8.43;;;5.20;;
16484;SDS011;8353;47.856;12.344;2024-01-30T00:32:10;4.60;;;3.50;;
16484;SDS011;8353;47.856;12.344;2024-01-30T00:34:41;4.23;;;3.20;;
16484;SDS011;8353;47.856;12.344;2024-01-30T00:37:12;5.43;;;3.33;;
16484;SDS011;8353;47.856;12.344;2024-01-30T00:39:42;5.80;;;4.63;;
16484;SDS011;8353;47.856;12.344;2024-01-30T00:42:13;6.23;;;4.13;;
16484;SDS011;8353;47.856;12.344;2024-01-30T00:44:46;5.37;;;4.20;;
16484;SDS011;8353;47.856;12.344;2024-01-30T00:47:16;5.30;;;3.60;;
16484;SDS011;8353;47.856;12.344;2024-01-30T00:49:46;3.83;;;3.03;;
16484;SDS011;8353;47.856;12.344;2024-01-30T00:52:17;3.90;;;3.07;;
16484;SDS011;8353;47.856;12.344;2024-01-30T00:54:47;4.40;;;3.33;;
16484;SDS011;8353;47.856;12.344;2024-01-30T00:57:17;4.03;;;2.90;;
16484;SDS011;8353;47.856;12.344;2024-01-30T00:59:49;6.03;;;4.10;;
16484;SDS011;8353;47.856;12.344;2024-01-30T01:02:19;4.70;;;3.43;;
16484;SDS011;8353;47.856;12.344;2024-01-30T01:04:49;5.50;;;3.47;;
16484;SDS011;8353;47.856;12.344;2024-01-30T01:07:20;5.20;;;3.87;;
16484;SDS011;8353;47.856;12.344;2024-01-30T01:09:51;5.10;;;3.73;;
16484;SDS011;8353;47.856;12.344;2024-01-30T01:12:21;5.07;;;3.70;;
16484;SDS011;8353;47.856;12.344;2024-01-30T01:14:53;4.27;;;3.17;;
16484;SDS011;8353;47.856;12.344;2024-01-30T01:17:23;4.10;;;3.47;;
16484;SDS011;8353;47.856;12.344;2024-01-30T01:19:54;4.33;;;3.03;;
16484;SDS011;8353;47.856;12.344;2024-01-30T01:22:24;5.83;;;3.93;;
16484;SDS011;8353;47.856;12.344;2024-01-30T01:24:54;5.80;;;4.43;;
16484;SDS011;8353;47.856;12.344;2024-01-30T01:27:25;4.00;;;3.07;;
16484;SDS011;8353;47.856;12.344;2024-01-30T01:29:56;6.13;;;4.20;;
16484;SDS011;8353;47.856;12.344;2024-01-30T01:32:27;5.30;;;3.70;;
16484;SDS011;8353;47.856;12.344;2024-01-30T01:34:58;6.57;;;4.20;;
16484;SDS011;8353;47.856;12.344;2024-01-30T01:37:29;4.30;;;2.93;;
16484;SDS011;8353;47.856;12.344;2024-01-30T01:40:00;5.80;;;4.27;;
16484;SDS011;8353;47.856;12.344;2024-01-30T01:42:30;4.00;;;3.43;;
16484;SDS011;8353;47.856;12.344;2024-01-30T01:45:02;4.10;;;3.60;;
16484;SDS011;8353;47.856;12.344;2024-01-30T01:47:32;5.67;;;3.70;;
16484;SDS011;8353;47.856;12.344;2024-01-30T01:50:03;3.93;;;3.00;;
16484;SDS011;8353;47.856;12.344;2024-01-30T01:52:34;4.50;;;2.87;;
16484;SDS011;8353;47.856;12.344;2024-01-30T01:55:05;3.23;;;2.47;;
16484;SDS011;8353;47.856;12.344;2024-01-30T01:57:36;3.90;;;3.43;;
16484;SDS011;8353;47.856;12.344;2024-01-30T02:00:09;6.07;;;3.60;;
16484;SDS011;8353;47.856;12.344;2024-01-30T02:02:40;5.20;;;3.97;;
16484;SDS011;8353;47.856;12.344;2024-01-30T02:05:14;4.77;;;3.37;;
16484;SDS011;8353;47.856;12.344;2024-01-30T02:07:44;4.87;;;3.70;;
16484;SDS011;8353;47.856;12.344;2024-01-30T02:10:15;5.90;;;3.90;;
16484;SDS011;8353;47.856;12.344;2024-01-30T02:12:45;3.63;;;3.23;;
16484;SDS011;8353;47.856;12.344;2024-01-30T02:15:17;5.50;;;3.70;;
16484;SDS011;8353;47.856;12.344;2024-01-30T02:17:47;3.53;;;2.70;;
16484;SDS011;8353;47.856;12.344;2024-01-30T02:20:17;4.80;;;4.17;;
16484;SDS011;8353;47.856;12.344;2024-01-30T02:22:49;4.40;;;3.60;;
16484;SDS011;8353;47.856;12.344;2024-01-30T02:25:29;3.83;;;2.83;;
16484;SDS011;8353;47.856;12.344;2024-01-30T02:28:00;4.60;;;3.40;;
16484;SDS011;8353;47.856;12.344;2024-01-30T02:30:31;4.20;;;3.80;;
16484;SDS011;8353;47.856;12.344;2024-01-30T02:33:01;4.50;;;4.10;;
16484;SDS011;8353;47.856;12.344;2024-01-30T02:35:31;5.10;;;3.60;;
16484;SDS011;8353;47.856;12.344;2024-01-30T02:38:03;6.07;;;3.90;;
16484;SDS011;8353;47.856;12.344;2024-01-30T02:40:34;4.07;;;3.37;;
16484;SDS011;8353;47.856;12.344;2024-01-30T02:43:04;5.60;;;3.93;;
16484;SDS011;8353;47.856;12.344;2024-01-30T02:45:35;4.73;;;3.67;;
16484;SDS011;8353;47.856;12.344;2024-01-30T02:48:06;3.47;;;3.17;;
16484;SDS011;8353;47.856;12.344;2024-01-30T02:50:36;5.50;;;4.03;;
16484;SDS011;8353;47.856;12.344;2024-01-30T02:53:08;5.70;;;4.17;;
16484;SDS011;8353;47.856;12.344;2024-01-30T02:55:38;4.17;;;3.60;;
16484;SDS011;8353;47.856;12.344;2024-01-30T02:58:09;4.17;;;2.93;;
16484;SDS011;8353;47.856;12.344;2024-01-30T03:00:39;4.60;;;3.57;;
16484;SDS011;8353;47.856;12.344;2024-01-30T03:03:10;4.77;;;3.60;;
16484;SDS011;8353;47.856;12.344;2024-01-30T03:05:40;4.87;;;3.40;;
16484;SDS011;8353;47.856;12.344;2024-01-30T03:08:11;5.00;;;4.17;;
16484;SDS011;8353;47.856;12.344;2024-01-30T03:10:41;5.33;;;4.20;;
16484;SDS011;8353;47.856;12.344;2024-01-30T03:13:12;5.07;;;4.37;;
16484;SDS011;8353;47.856;12.344;2024-01-30T03:15:43;4.07;;;3.40;;
16484;SDS011;8353;47.856;12.344;2024-01-30T03:18:13;4.47;;;3.17;;
16484;SDS011;8353;47.856;12.344;2024-01-30T03:20:44;3.33;;;2.90;;
16484;SDS011;8353;47.856;12.344;2024-01-30T03:23:16;5.10;;;3.60;;
16484;SDS011;8353;47.856;12.344;2024-01-30T03:25:46;4.70;;;3.57;;
16484;SDS011;8353;47.856;12.344;2024-01-30T03:28:17;3.57;;;3.07;;
16484;SDS011;8353;47.856;12.344;2024-01-30T03:30:47;4.17;;;3.00;;
16484;SDS011;8353;47.856;12.344;2024-01-30T03:33:18;4.53;;;4.03;;
16484;SDS011;8353;47.856;12.344;2024-01-30T03:35:48;4.40;;;3.70;;
16484;SDS011;8353;47.856;12.344;2024-01-30T03:38:20;4.47;;;3.47;;
16484;SDS011;8353;47.856;12.344;2024-01-30T03:40:50;4.20;;;3.50;;
16484;SDS011;8353;47.856;12.344;2024-01-30T03:43:21;5.00;;;4.27;;
16484;SDS011;8353;47.856;12.344;2024-01-30T03:45:51;4.90;;;3.73;;
16484;SDS011;8353;47.856;12.344;2024-01-30T03:48:21;5.90;;;3.60;;
16484;SDS011;8353;47.856;12.344;2024-01-30T03:50:52;3.33;;;3.03;;
16484;SDS011;8353;47.856;12.344;2024-01-30T03:53:23;5.53;;;4.10;;
16484;SDS011;8353;47.856;12.344;2024-01-30T03:55:53;5.57;;;4.57;;
16484;SDS011;8353;47.856;12.344;2024-01-30T03:58:24;5.73;;;4.20;;
16484;SDS011;8353;47.856;12.344;2024-01-30T04:00:54;5.37;;;4.30;;
16484;SDS011;8353;47.856;12.344;2024-01-30T04:03:24;3.93;;;2.83;;
16484;SDS011;8353;47.856;12.344;2024-01-30T04:05:54;5.37;;;4.60;;
16484;SDS011;8353;47.856;12.344;2024-01-30T04:08:26;3.87;;;3.40;;
16484;SDS011;8353;47.856;12.344;2024-01-30T04:10:57;4.83;;;3.93;;
16484;SDS011;8353;47.856;12.344;2024-01-30T04:13:28;4.90;;;3.77;;
16484;SDS011;8353;47.856;12.344;2024-01-30T04:15:58;4.23;;;3.57;;
16484;SDS011;8353;47.856;12.344;2024-01-30T04:18:29;5.83;;;4.00;;
16484;SDS011;8353;47.856;12.344;2024-01-30T04:21:00;4.97;;;4.10;;
16484;SDS011;8353;47.856;12.344;2024-01-30T04:23:32;4.77;;;3.27;;
16484;SDS011;8353;47.856;12.344;2024-01-30T04:26:03;4.50;;;3.40;;
16484;SDS011;8353;47.856;12.344;2024-01-30T04:28:33;3.53;;;2.70;;
16484;SDS011;8353;47.856;12.344;2024-01-30T04:31:03;4.37;;;3.03;;
16484;SDS011;8353;47.856;12.344;2024-01-30T04:33:34;4.43;;;3.40;;
16484;SDS011;8353;47.856;12.344;2024-01-30T04:36:04;5.50;;;4.40;;
16484;SDS011;8353;47.856;12.344;2024-01-30T04:38:39;6.00;;;4.47;;
16484;SDS011;8353;47.856;12.344;2024-01-30T04:41:10;3.23;;;2.93;;
16484;SDS011;8353;47.856;12.344;2024-01-30T04:43:40;5.53;;;3.47;;
16484;SDS011;8353;47.856;12.344;2024-01-30T04:46:10;6.87;;;3.33;;
16484;SDS011;8353;47.856;12.344;2024-01-30T04:48:41;7.00;;;4.10;;
16484;SDS011;8353;47.856;12.344;2024-01-30T04:51:11;4.37;;;3.80;;
16484;SDS011;8353;47.856;12.344;2024-01-30T04:53:43;3.57;;;3.27;;
16484;SDS011;8353;47.856;12.344;2024-01-30T04:56:13;4.23;;;3.10;;
16484;SDS011;8353;47.856;12.344;2024-01-30T04:58:44;3.37;;;2.57;;
16484;SDS011;8353;47.856;12.344;2024-01-30T05:01:14;3.87;;;3.13;;
16484;SDS011;8353;47.856;12.344;2024-01-30T05:03:45;4.03;;;3.37;;
16484;SDS011;8353;47.856;12.344;2024-01-30T05:06:23;3.53;;;3.10;;
16484;SDS011;8353;47.856;12.344;2024-01-30T05:08:55;4.87;;;3.30;;
16484;SDS011;8353;47.856;12.344;2024-01-30T05:11:25;5.63;;;4.23;;
16484;SDS011;8353;47.856;12.344;2024-01-30T05:13:56;4.13;;;3.50;;
16484;SDS011;8353;47.856;12.344;2024-01-30T05:16:26;4.00;;;2.70;;
16484;SDS011;8353;47.856;12.344;2024-01-30T05:18:56;3.93;;;3.27;;
16484;SDS011;8353;47.856;12.344;2024-01-30T05:21:27;4.27;;;3.20;;
16484;SDS011;8353;47.856;12.344;2024-01-30T05:23:58;6.13;;;3.97;;
16484;SDS011;8353;47.856;12.344;2024-01-30T05:26:29;3.17;;;2.53;;
16484;SDS011;8353;47.856;12.344;2024-01-30T05:28:59;4.00;;;3.33;;
16484;SDS011;8353;47.856;12.344;2024-01-30T05:31:30;3.93;;;2.97;;
16484;SDS011;8353;47.856;12.344;2024-01-30T05:34:00;4.33;;;2.70;;
16484;SDS011;8353;47.856;12.344;2024-01-30T05:36:31;5.67;;;4.00;;
16484;SDS011;8353;47.856;12.344;2024-01-30T05:39:02;4.57;;;4.07;;
16484;SDS011;8353;47.856;12.344;2024-01-30T05:41:34;4.23;;;3.23;;
16484;SDS011;8353;47.856;12.344;2024-01-30T05:44:04;4.33;;;3.50;;
16484;SDS011;8353;47.856;12.344;2024-01-30T05:46:35;6.90;;;3.90;;
16484;SDS011;8353;47.856;12.344;2024-01-30T05:49:06;6.60;;;4.37;;
16484;SDS011;8353;47.856;12.344;2024-01-30T05:51:36;3.33;;;3.00;;
16484;SDS011;8353;47.856;12.344;2024-01-30T05:54:08;3.27;;;2.90;;
16484;SDS011;8353;47.856;12.344;2024-01-30T05:56:39;5.60;;;3.57;;
16484;SDS011;8353;47.856;12.344;2024-01-30T05:59:09;4.03;;;3.17;;
16484;SDS011;8353;47.856;12.344;2024-01-30T06:01:44;3.83;;;3.30;;
16484;SDS011;8353;47.856;12.344;2024-01-30T06:04:15;10.70;;;5.30;;
16484;SDS011;8353;47.856;12.344;2024-01-30T06:06:45;9.63;;;5.90;;
16484;SDS011;8353;47.856;12.344;2024-01-30T06:09:17;4.33;;;3.43;;
16484;SDS011;8353;47.856;12.344;2024-01-30T06:11:47;6.43;;;4.27;;
16484;SDS011;8353;47.856;12.344;2024-01-30T06:14:18;6.83;;;3.90;;
16484;SDS011;8353;47.856;12.344;2024-01-30T06:16:48;3.77;;;3.07;;
16484;SDS011;8353;47.856;12.344;2024-01-30T06:19:19;5.37;;;4.43;;
16484;SDS011;8353;47.856;12.344;2024-01-30T06:21:49;7.27;;;5.07;;
16484;SDS011;8353;47.856;12.344;2024-01-30T06:24:21;3.67;;;3.03;;
16484;SDS011;8353;47.856;12.344;2024-01-30T06:26:51;5.43;;;4.20;;
16484;SDS011;8353;47.856;12.344;2024-01-30T06:29:21;3.63;;;2.67;;
16484;SDS011;8353;47.856;12.344;2024-01-30T06:31:53;4.97;;;3.80;;
16484;SDS011;8353;47.856;12.344;2024-01-30T06:34:23;5.90;;;3.80;;
16484;SDS011;8353;47.856;12.344;2024-01-30T06:36:55;6.37;;;5.03;;
16484;SDS011;8353;47.856;12.344;2024-01-30T06:39:26;4.53;;;3.57;;
16484;SDS011;8353;47.856;12.344;2024-01-30T06:41:56;6.17;;;4.47;;
16484;SDS011;8353;47.856;12.344;2024-01-30T06:44:27;5.50;;;4.83;;
16484;SDS011;8353;47.856;12.344;2024-01-30T06:46:58;7.80;;;4.30;;
16484;SDS011;8353;47.856;12.344;2024-01-30T06:49:29;3.20;;;2.70;;
16484;SDS011;8353;47.856;12.344;2024-01-30T06:52:00;3.00;;;2.57;;
16484;SDS011;8353;47.856;12.344;2024-01-30T06:54:31;4.90;;;3.80;;
16484;SDS011;8353;47.856;12.344;2024-01-30T06:57:02;4.83;;;4.40;;
16484;SDS011;8353;47.856;12.344;2024-01-30T06:59:33;8.23;;;4.63;;
16484;SDS011;8353;47.856;12.344;2024-01-30T07:02:03;4.97;;;3.87;;
16484;SDS011;8353;47.856;12.344;2024-01-30T07:04:34;5.70;;;3.70;;
16484;SDS011;8353;47.856;12.344;2024-01-30T07:07:06;4.93;;;4.37;;
16484;SDS011;8353;47.856;12.344;2024-01-30T07:09:42;6.00;;;3.90;;
16484;SDS011;8353;47.856;12.344;2024-01-30T07:12:13;4.53;;;3.93;;
16484;SDS011;8353;47.856;12.344;2024-01-30T07:14:42;5.80;;;3.37;;
16484;SDS011;8353;47.856;12.344;2024-01-30T07:17:12;5.37;;;4.30;;
16484;SDS011;8353;47.856;12.344;2024-01-30T07:19:43;7.67;;;4.43;;
16484;SDS011;8353;47.856;12.344;2024-01-30T07:22:13;7.40;;;5.30;;
16484;SDS011;8353;47.856;12.344;2024-01-30T07:24:45;5.23;;;3.90;;
16484;SDS011;8353;47.856;12.344;2024-01-30T07:27:16;6.77;;;4.67;;
16484;SDS011;8353;47.856;12.344;2024-01-30T07:29:47;4.77;;;3.77;;
16484;SDS011;8353;47.856;12.344;2024-01-30T07:32:17;4.67;;;3.77;;
16484;SDS011;8353;47.856;12.344;2024-01-30T07:34:48;6.00;;;4.13;;
16484;SDS011;8353;47.856;12.344;2024-01-30T07:37:19;7.97;;;4.73;;
16484;SDS011;8353;47.856;12.344;2024-01-30T07:39:50;4.47;;;3.57;;
16484;SDS011;8353;47.856;12.344;2024-01-30T07:42:21;3.77;;;3.20;;
16484;SDS011;8353;47.856;12.344;2024-01-30T07:44:51;3.83;;;3.43;;
16484;SDS011;8353;47.856;12.344;2024-01-30T07:47:25;6.80;;;4.87;;
16484;SDS011;8353;47.856;12.344;2024-01-30T07:49:55;4.70;;;3.30;;
16484;SDS011;8353;47.856;12.344;2024-01-30T07:52:25;6.13;;;4.27;;
16484;SDS011;8353;47.856;12.344;2024-01-30T07:54:57;6.30;;;4.23;;
16484;SDS011;8353;47.856;12.344;2024-01-30T07:57:27;7.60;;;3.80;;
16484;SDS011;8353;47.856;12.344;2024-01-30T07:59:58;5.70;;;4.83;;
16484;SDS011;8353;47.856;12.344;2024-01-30T08:02:28;6.00;;;4.53;;
16484;SDS011;8353;47.856;12.344;2024-01-30T08:04:58;5.73;;;4.53;;
16484;SDS011;8353;47.856;12.344;2024-01-30T08:07:29;5.47;;;4.70;;
16484;SDS011;8353;47.856;12.344;2024-01-30T08:10:00;5.17;;;4.30;;
16484;SDS011;8353;47.856;12.344;2024-01-30T08:12:31;5.53;;;4.27;;
16484;SDS011;8353;47.856;12.344;2024-01-30T08:15:01;4.93;;;4.10;;
16484;SDS011;8353;47.856;12.344;2024-01-30T08:17:32;9.63;;;5.57;;
16484;SDS011;8353;47.856;12.344;2024-01-30T08:20:02;6.23;;;4.97;;
16484;SDS011;8353;47.856;12.344;2024-01-30T08:22:33;8.57;;;7.20;;
16484;SDS011;8353;47.856;12.344;2024-01-30T08:25:05;7.50;;;6.23;;
16484;SDS011;8353;47.856;12.344;2024-01-30T08:27:38;8.57;;;4.53;;
16484;SDS011;8353;47.856;12.344;2024-01-30T08:30:09;12.27;;;10.17;;
16484;SDS011;8353;47.856;12.344;2024-01-30T08:32:40;7.33;;;5.53;;
16484;SDS011;8353;47.856;12.344;2024-01-30T08:35:10;16.13;;;12.80;;
16484;SDS011;8353;47.856;12.344;2024-01-30T08:37:42;14.67;;;12.07;;
16484;SDS011;8353;47.856;12.344;2024-01-30T08:40:14;9.20;;;7.83;;
16484;SDS011;8353;47.856;12.344;2024-01-30T08:42:45;12.97;;;10.00;;
16484;SDS011;8353;47.856;12.344;2024-01-30T08:45:15;14.43;;;10.83;;
16484;SDS011;8353;47.856;12.344;2024-01-30T08:47:46;12.30;;;9.07;;
16484;SDS011;8353;47.856;12.344;2024-01-30T08:50:16;19.33;;;11.80;;
16484;SDS011;8353;47.856;12.344;2024-01-30T08:52:47;14.60;;;11.03;;
16484;SDS011;8353;47.856;12.344;2024-01-30T08:55:19;15.33;;;10.17;;
16484;SDS011;8353;47.856;12.344;2024-01-30T08:57:56;13.63;;;9.83;;
16484;SDS011;8353;47.856;12.344;2024-01-30T09:00:26;15.90;;;10.50;;
16484;SDS011;8353;47.856;12.344;2024-01-30T09:02:57;13.73;;;9.07;;
16484;SDS011;8353;47.856;12.344;2024-01-30T09:05:27;11.90;;;7.80;;
16484;SDS011;8353;47.856;12.344;2024-01-30T09:07:57;13.30;;;8.90;;
16484;SDS011;8353;47.856;12.344;2024-01-30T09:10:29;11.87;;;8.23;;
16484;SDS011;8353;47.856;12.344;2024-01-30T09:12:59;12.17;;;8.63;;
16484;SDS011;8353;47.856;12.344;2024-01-30T09:15:29;15.70;;;8.73;;
16484;SDS011;8353;47.856;12.344;2024-01-30T09:17:59;12.67;;;8.33;;
16484;SDS011;8353;47.856;12.344;2024-01-30T09:20:29;17.30;;;8.67;;
16484;SDS011;8353;47.856;12.344;2024-01-30T09:23:00;12.63;;;8.13;;
16484;SDS011;8353;47.856;12.344;2024-01-30T09:25:31;10.40;;;8.13;;
16484;SDS011;8353;47.856;12.344;2024-01-30T09:28:03;15.13;;;9.50;;
16484;SDS011;8353;47.856;12.344;2024-01-30T09:30:33;14.77;;;8.57;;
16484;SDS011;8353;47.856;12.344;2024-01-30T09:33:04;10.57;;;8.10;;
16484;SDS011;8353;47.856;12.344;2024-01-30T09:35:34;11.83;;;7.90;;
16484;SDS011;8353;47.856;12.344;2024-01-30T09:38:08;11.07;;;7.77;;
16484;SDS011;8353;47.856;12.344;2024-01-30T09:41:08;10.60;;;7.30;;
16484;SDS011;8353;47.856;12.344;2024-01-30T09:43:39;11.80;;;7.03;;
16484;SDS011;8353;47.856;12.344;2024-01-30T09:46:11;11.57;;;6.63;;
16484;SDS011;8353;47.856;12.344;2024-01-30T09:48:45;10.73;;;6.70;;
16484;SDS011;8353;47.856;12.344;2024-01-30T09:51:16;9.97;;;5.93;;
16484;SDS011;8353;47.856;12.344;2024-01-30T09:53:47;7.20;;;5.40;;
16484;SDS011;8353;47.856;12.344;2024-01-30T09:56:20;7.37;;;5.80;;
16484;SDS011;8353;47.856;12.344;2024-01-30T09:58:51;5.93;;;4.50;;
16484;SDS011;8353;47.856;12.344;2024-01-30T10:01:22;6.73;;;4.30;;
16484;SDS011;8353;47.856;12.344;2024-01-30T10:03:53;5.43;;;4.37;;
16484;SDS011;8353;47.856;12.344;2024-01-30T10:06:24;6.10;;;4.17;;
16484;SDS011;8353;47.856;12.344;2024-01-30T10:08:55;5.03;;;4.30;;
16484;SDS011;8353;47.856;12.344;2024-01-30T10:11:27;4.50;;;3.70;;
16484;SDS011;8353;47.856;12.344;2024-01-30T10:13:57;6.93;;;4.23;;
16484;SDS011;8353;47.856;12.344;2024-01-30T10:16:28;8.47;;;4.00;;
16484;SDS011;8353;47.856;12.344;2024-01-30T10:18:58;7.17;;;3.50;;
16484;SDS011;8353;47.856;12.344;2024-01-30T10:21:29;3.60;;;3.20;;
16484;SDS011;8353;47.856;12.344;2024-01-30T10:24:00;4.57;;;3.20;;
16484;SDS011;8353;47.856;12.344;2024-01-30T10:26:31;3.80;;;3.37;;
16484;SDS011;8353;47.856;12.344;2024-01-30T10:29:03;6.17;;;3.60;;
16484;SDS011;8353;47.856;12.344;2024-01-30T10:31:34;4.77;;;3.70;;
16484;SDS011;8353;47.856;12.344;2024-01-30T10:34:05;4.90;;;3.50;;
16484;SDS011;8353;47.856;12.344;2024-01-30T10:36:38;6.00;;;3.50;;
16484;SDS011;8353;47.856;12.344;2024-01-30T10:39:10;4.30;;;3.30;;
16484;SDS011;8353;47.856;12.344;2024-01-30T10:41:44;3.40;;;3.10;;
16484;SDS011;8353;47.856;12.344;2024-01-30T10:44:15;6.77;;;3.43;;
16484;SDS011;8353;47.856;12.344;2024-01-30T10:46:51;5.73;;;3.73;;
16484;SDS011;8353;47.856;12.344;2024-01-30T10:49:33;4.57;;;3.67;;
16484;SDS011;8353;47.856;12.344;2024-01-30T10:52:03;6.33;;;3.33;;
16484;SDS011;8353;47.856;12.344;2024-01-30T10:54:35;3.27;;;2.90;;
16484;SDS011;8353;47.856;12.344;2024-01-30T10:57:13;4.80;;;4.00;;
16484;SDS011;8353;47.856;12.344;2024-01-30T10:59:45;5.80;;;3.77;;
16484;SDS011;8353;47.856;12.344;2024-01-30T11:02:17;14.13;;;4.83;;
16484;SDS011;8353;47.856;12.344;2024-01-30T11:04:48;4.77;;;4.03;;
16484;SDS011;8353;47.856;12.344;2024-01-30T11:07:23;10.90;;;4.67;;
16484;SDS011;8353;47.856;12.344;2024-01-30T11:09:59;7.20;;;3.67;;
16484;SDS011;8353;47.856;12.344;2024-01-30T11:12:33;6.00;;;4.43;;
16484;SDS011;8353;47.856;12.344;2024-01-30T11:15:10;6.10;;;4.00;;
16484;SDS011;8353;47.856;12.344;2024-01-30T11:17:43;4.03;;;3.63;;
16484;SDS011;8353;47.856;12.344;2024-01-30T11:20:15;4.43;;;3.67;;
16484;SDS011;8353;47.856;12.344;2024-01-30T11:22:49;4.37;;;3.70;;
16484;SDS011;8353;47.856;12.344;2024-01-30T11:25:22;4.70;;;3.10;;
16484;SDS011;8353;47.856;12.344;2024-01-30T11:27:55;5.60;;;3.80;;
16484;SDS011;8353;47.856;12.344;2024-01-30T11:30:25;5.97;;;3.67;;
16484;SDS011;8353;47.856;12.344;2024-01-30T11:33:03;5.77;;;3.33;;
16484;SDS011;8353;47.856;12.344;2024-01-30T11:35:35;8.90;;;4.00;;
16484;SDS011;8353;47.856;12.344;2024-01-30T11:38:08;5.97;;;3.27;;
16484;SDS011;8353;47.856;12.344;2024-01-30T11:40:39;6.43;;;3.60;;
16484;SDS011;8353;47.856;12.344;2024-01-30T11:43:11;4.17;;;3.50;;
16484;SDS011;8353;47.856;12.344;2024-01-30T11:45:41;5.00;;;3.77;;
16484;SDS011;8353;47.856;12.344;2024-01-30T11:48:13;3.97;;;3.30;;
16484;SDS011;8353;47.856;12.344;2024-01-30T11:50:44;3.70;;;2.97;;
16484;SDS011;8353;47.856;12.344;2024-01-30T11:53:14;3.70;;;3.10;;
16484;SDS011;8353;47.856;12.344;2024-01-30T11:55:49;3.17;;;2.57;;
16484;SDS011;8353;47.856;12.344;2024-01-30T11:58:21;3.97;;;2.73;;
16484;SDS011;8353;47.856;12.344;2024-01-30T12:00:54;4.40;;;3.10;;
16484;SDS011;8353;47.856;12.344;2024-01-30T12:03:25;5.40;;;3.43;;
16484;SDS011;8353;47.856;12.344;2024-01-30T12:05:56;3.73;;;2.70;;
16484;SDS011;8353;47.856;12.344;2024-01-30T12:08:27;6.40;;;3.10;;
16484;SDS011;8353;47.856;12.344;2024-01-30T12:10:58;4.40;;;2.70;;
16484;SDS011;8353;47.856;12.344;2024-01-30T12:13:32;7.57;;;3.63;;
16484;SDS011;8353;47.856;12.344;2024-01-30T12:16:02;2.73;;;2.40;;
16484;SDS011;8353;47.856;12.344;2024-01-30T12:18:33;5.40;;;3.10;;
16484;SDS011;8353;47.856;12.344;2024-01-30T12:21:03;5.90;;;3.30;;
16484;SDS011;8353;47.856;12.344;2024-01-30T12:23:35;3.90;;;2.60;;
16484;SDS011;8353;47.856;12.344;2024-01-30T12:26:08;4.27;;;3.10;;
16484;SDS011;8353;47.856;12.344;2024-01-30T12:28:48;4.27;;;2.70;;
16484;SDS011;8353;47.856;12.344;2024-01-30T12:31:25;6.57;;;2.90;;
16484;SDS011;8353;47.856;12.344;2024-01-30T12:33:58;3.70;;;2.50;;
16484;SDS011;8353;47.856;12.344;2024-01-30T12:36:29;3.83;;;2.50;;
16484;SDS011;8353;47.856;12.344;2024-01-30T12:39:01;2.87;;;2.43;;
16484;SDS011;8353;47.856;12.344;2024-01-30T12:41:32;5.13;;;3.20;;
16484;SDS011;8353;47.856;12.344;2024-01-30T12:44:05;3.43;;;2.97;;
16484;SDS011;8353;47.856;12.344;2024-01-30T12:46:35;3.40;;;2.80;;
16484;SDS011;8353;47.856;12.344;2024-01-30T12:49:06;3.50;;;2.50;;
16484;SDS011;8353;47.856;12.344;2024-01-30T12:51:36;3.07;;;2.37;;
16484;SDS011;8353;47.856;12.344;2024-01-30T12:54:08;2.50;;;2.30;;
16484;SDS011;8353;47.856;12.344;2024-01-30T12:56:38;6.60;;;2.50;;
16484;SDS011;8353;47.856;12.344;2024-01-30T12:59:10;2.92;;;2.55;;
16484;SDS011;8353;47.856;12.344;2024-01-30T13:01:41;2.85;;;2.50;;
16484;SDS011;8353;47.856;12.344;2024-01-30T13:04:11;4.00;;;2.58;;
16484;SDS011;8353;47.856;12.344;2024-01-30T13:06:42;3.45;;;2.85;;
16484;SDS011;8353;47.856;12.344;2024-01-30T13:09:13;3.72;;;2.33;;
16484;SDS011;8353;47.856;12.344;2024-01-30T13:11:44;3.70;;;2.85;;
16484;SDS011;8353;47.856;12.344;2024-01-30T13:14:16;3.60;;;2.40;;
16484;SDS011;8353;47.856;12.344;2024-01-30T13:16:46;7.38;;;3.25;;
16484;SDS011;8353;47.856;12.344;2024-01-30T13:19:17;4.57;;;2.88;;
16484;SDS011;8353;47.856;12.344;2024-01-30T13:21:47;6.43;;;2.63;;
16484;SDS011;8353;47.856;12.344;2024-01-30T13:24:17;6.10;;;2.70;;
16484;SDS011;8353;47.856;12.344;2024-01-30T13:26:49;4.10;;;2.42;;
16484;SDS011;8353;47.856;12.344;2024-01-30T13:29:21;4.07;;;2.63;;
16484;SDS011;8353;47.856;12.344;2024-01-30T13:31:51;4.13;;;2.63;;
16484;SDS011;8353;47.856;12.344;2024-01-30T13:34:21;4.68;;;3.33;;
16484;SDS011;8353;47.856;12.344;2024-01-30T13:36:51;5.03;;;4.20;;
16484;SDS011;8353;47.856;12.344;2024-01-30T13:39:22;3.70;;;2.65;;
16484;SDS011;8353;47.856;12.344;2024-01-30T13:41:52;4.93;;;3.10;;
16484;SDS011;8353;47.856;12.344;2024-01-30T13:44:24;3.92;;;3.22;;
16484;SDS011;8353;47.856;12.344;2024-01-30T13:46:54;4.68;;;2.75;;
16484;SDS011;8353;47.856;12.344;2024-01-30T13:49:24;6.47;;;3.08;;
16484;SDS011;8353;47.856;12.344;2024-01-30T13:51:55;3.95;;;2.95;;
16484;SDS011;8353;47.856;12.344;2024-01-30T13:54:27;2.90;;;2.53;;
16484;SDS011;8353;47.856;12.344;2024-01-30T13:56:58;6.10;;;2.72;;
16484;SDS011;8353;47.856;12.344;2024-01-30T13:59:30;3.03;;;2.67;;
16484;SDS011;8353;47.856;12.344;2024-01-30T14:02:00;5.07;;;2.80;;
16484;SDS011;8353;47.856;12.344;2024-01-30T14:04:30;4.72;;;2.97;;
16484;SDS011;8353;47.856;12.344;2024-01-30T14:07:01;6.35;;;3.22;;
16484;SDS011;8353;47.856;12.344;2024-01-30T14:09:31;4.70;;;3.13;;
16484;SDS011;8353;47.856;12.344;2024-01-30T14:12:03;4.50;;;3.00;;
16484;SDS011;8353;47.856;12.344;2024-01-30T14:14:35;3.88;;;3.35;;
16484;SDS011;8353;47.856;12.344;2024-01-30T14:17:05;2.97;;;2.60;;
16484;SDS011;8353;47.856;12.344;2024-01-30T14:19:36;5.53;;;3.20;;
16484;SDS011;8353;47.856;12.344;2024-01-30T14:22:06;3.63;;;2.60;;
16484;SDS011;8353;47.856;12.344;2024-01-30T14:24:37;3.58;;;2.70;;
16484;SDS011;8353;47.856;12.344;2024-01-30T14:27:07;5.10;;;2.58;;
16484;SDS011;8353;47.856;12.344;2024-01-30T14:29:40;3.55;;;2.60;;
16484;SDS011;8353;47.856;12.344;2024-01-30T14:32:12;5.27;;;2.80;;
16484;SDS011;8353;47.856;12.344;2024-01-30T14:34:42;3.92;;;2.85;;
16484;SDS011;8353;47.856;12.344;2024-01-30T14:37:14;4.90;;;2.75;;
16484;SDS011;8353;47.856;12.344;2024-01-30T14:39:45;5.00;;;2.70;;
16484;SDS011;8353;47.856;12.344;2024-01-30T14:42:16;2.85;;;2.10;;
16484;SDS011;8353;47.856;12.344;2024-01-30T14:44:48;4.65;;;3.10;;
16484;SDS011;8353;47.856;12.344;2024-01-30T14:47:18;9.48;;;2.70;;
16484;SDS011;8353;47.856;12.344;2024-01-30T14:49:49;2.17;;;1.98;;
16484;SDS011;8353;47.856;12.344;2024-01-30T14:52:20;3.38;;;2.08;;
16484;SDS011;8353;47.856;12.344;2024-01-30T14:54:53;4.00;;;2.80;;
16484;SDS011;8353;47.856;12.344;2024-01-30T14:57:23;4.78;;;2.50;;
16484;SDS011;8353;47.856;12.344;2024-01-30T14:59:56;4.82;;;3.10;;
16484;SDS011;8353;47.856;12.344;2024-01-30T15:02:26;3.97;;;3.50;;
16484;SDS011;8353;47.856;12.344;2024-01-30T15:04:56;6.03;;;3.70;;
16484;SDS011;8353;47.856;12.344;2024-01-30T15:07:27;5.35;;;3.88;;
16484;SDS011;8353;47.856;12.344;2024-01-30T15:09:58;6.20;;;4.03;;